sensor_id;sensor_type;location;lat;lon;timestamp;P1;durP1;ratioP1;P2;durP2;ratioP2
70549;SDS011;58101;48.658;2.328;2022-12-18T00:03:58;46.72;;;15.23;;
70549;SDS011;58101;48.658;2.328;2022-12-18T00:06:25;46.08;;;13.68;;
70549;SDS011;58101;48.658;2.328;2022-12-18T00:08:52;44.38;;;13.60;;
70549;SDS011;58101;48.658;2.328;2022-12-18T00:11:19;44.08;;;13.63;;
70549;SDS011;58101;48.658;2.328;2022-12-18T00:13:46;50.28;;;14.05;;
70549;SDS011;58101;48.658;2.328;2022-12-18T00:16:13;41.78;;;13.27;;
70549;SDS011;58101;48.658;2.328;2022-12-18T00:18:41;45.53;;;14.63;;
70549;SDS011;58101;48.658;2.328;2022-12-18T00:21:08;43.80;;;13.98;;
70549;SDS011;58101;48.658;2.328;2022-12-18T00:23:35;43.88;;;12.73;;
70549;SDS011;58101;48.658;2.328;2022-12-18T00:26:03;42.10;;;13.48;;
70549;SDS011;58101;48.658;2.328;2022-12-18T00:28:34;41.00;;;13.40;;
70549;SDS011;58101;48.658;2.328;2022-12-18T00:33:31;49.80;;;14.15;;
70549;SDS011;58101;48.658;2.328;2022-12-18T00:36:07;42.50;;;13.43;;
70549;SDS011;58101;48.658;2.328;2022-12-18T00:38:36;44.08;;;14.30;;
70549;SDS011;58101;48.658;2.328;2022-12-18T00:41:02;50.78;;;14.77;;
70549;SDS011;58101;48.658;2.328;2022-12-18T00:43:28;43.85;;;14.82;;
70549;SDS011;58101;48.658;2.328;2022-12-18T00:45:53;42.08;;;13.73;;
70549;SDS011;58101;48.658;2.328;2022-12-18T00:48:19;50.25;;;14.43;;
70549;SDS011;58101;48.658;2.328;2022-12-18T00:50:45;49.10;;;15.65;;
70549;SDS011;58101;48.658;2.328;2022-12-18T00:53:12;52.75;;;16.23;;
70549;SDS011;58101;48.658;2.328;2022-12-18T00:55:41;54.10;;;15.93;;
70549;SDS011;58101;48.658;2.328;2022-12-18T00:58:07;54.42;;;17.25;;
70549;SDS011;58101;48.658;2.328;2022-12-18T01:00:34;58.20;;;17.00;;
70549;SDS011;58101;48.658;2.328;2022-12-18T01:02:59;49.25;;;15.77;;
70549;SDS011;58101;48.658;2.328;2022-12-18T01:05:25;46.33;;;16.25;;
70549;SDS011;58101;48.658;2.328;2022-12-18T01:07:50;50.65;;;16.73;;
70549;SDS011;58101;48.658;2.328;2022-12-18T01:10:16;59.53;;;18.23;;
70549;SDS011;58101;48.658;2.328;2022-12-18T01:12:42;49.80;;;17.73;;
70549;SDS011;58101;48.658;2.328;2022-12-18T01:15:08;50.00;;;15.93;;
70549;SDS011;58101;48.658;2.328;2022-12-18T01:17:36;41.50;;;15.05;;
70549;SDS011;58101;48.658;2.328;2022-12-18T01:20:02;43.97;;;13.73;;
70549;SDS011;58101;48.658;2.328;2022-12-18T01:22:28;37.67;;;13.02;;
70549;SDS011;58101;48.658;2.328;2022-12-18T01:24:54;46.03;;;14.20;;
70549;SDS011;58101;48.658;2.328;2022-12-18T01:27:20;44.40;;;14.57;;
70549;SDS011;58101;48.658;2.328;2022-12-18T01:29:45;50.03;;;15.35;;
70549;SDS011;58101;48.658;2.328;2022-12-18T01:32:11;39.25;;;13.30;;
70549;SDS011;58101;48.658;2.328;2022-12-18T01:34:37;38.05;;;13.45;;
70549;SDS011;58101;48.658;2.328;2022-12-18T01:37:03;40.83;;;13.73;;
70549;SDS011;58101;48.658;2.328;2022-12-18T01:39:29;41.17;;;13.88;;
70549;SDS011;58101;48.658;2.328;2022-12-18T01:41:57;41.13;;;14.02;;
70549;SDS011;58101;48.658;2.328;2022-12-18T01:47:49;46.22;;;15.15;;
70549;SDS011;58101;48.658;2.328;2022-12-18T01:50:33;49.50;;;15.25;;
70549;SDS011;58101;48.658;2.328;2022-12-18T01:53:16;46.47;;;13.35;;
70549;SDS011;58101;48.658;2.328;2022-12-18T01:55:53;43.38;;;12.90;;
70549;SDS011;58101;48.658;2.328;2022-12-18T01:59:22;45.28;;;13.70;;
70549;SDS011;58101;48.658;2.328;2022-12-18T02:01:21;38.45;;;13.20;;
70549;SDS011;58101;48.658;2.328;2022-12-18T02:03:48;37.95;;;13.05;;
70549;SDS011;58101;48.658;2.328;2022-12-18T02:17:33;46.45;;;14.07;;
70549;SDS011;58101;48.658;2.328;2022-12-18T02:23:00;35.65;;;13.45;;
70549;SDS011;58101;48.658;2.328;2022-12-18T02:28:23;45.90;;;14.38;;
70549;SDS011;58101;48.658;2.328;2022-12-18T02:30:51;43.45;;;14.43;;
70549;SDS011;58101;48.658;2.328;2022-12-18T02:33:21;43.83;;;14.23;;
70549;SDS011;58101;48.658;2.328;2022-12-18T02:35:49;38.38;;;13.43;;
70549;SDS011;58101;48.658;2.328;2022-12-18T02:38:17;42.05;;;13.63;;
70549;SDS011;58101;48.658;2.328;2022-12-18T02:40:43;28.67;;;11.77;;
70549;SDS011;58101;48.658;2.328;2022-12-18T02:43:14;35.03;;;12.32;;
70549;SDS011;58101;48.658;2.328;2022-12-18T02:48:48;36.85;;;11.93;;
70549;SDS011;58101;48.658;2.328;2022-12-18T02:51:17;33.00;;;11.98;;
70549;SDS011;58101;48.658;2.328;2022-12-18T02:54:20;35.60;;;13.07;;
70549;SDS011;58101;48.658;2.328;2022-12-18T02:57:02;31.55;;;12.02;;
70549;SDS011;58101;48.658;2.328;2022-12-18T02:59:42;35.65;;;12.25;;
70549;SDS011;58101;48.658;2.328;2022-12-18T03:07:37;34.03;;;12.40;;
70549;SDS011;58101;48.658;2.328;2022-12-18T03:10:44;32.08;;;12.25;;
70549;SDS011;58101;48.658;2.328;2022-12-18T03:13:19;38.13;;;12.80;;
70549;SDS011;58101;48.658;2.328;2022-12-18T03:15:50;38.47;;;12.27;;
70549;SDS011;58101;48.658;2.328;2022-12-18T03:18:24;35.63;;;11.38;;
70549;SDS011;58101;48.658;2.328;2022-12-18T03:20:54;34.80;;;12.20;;
70549;SDS011;58101;48.658;2.328;2022-12-18T03:23:25;37.95;;;13.32;;
70549;SDS011;58101;48.658;2.328;2022-12-18T03:25:57;35.58;;;12.30;;
70549;SDS011;58101;48.658;2.328;2022-12-18T03:28:26;39.95;;;13.45;;
70549;SDS011;58101;48.658;2.328;2022-12-18T03:30:56;32.50;;;11.73;;
70549;SDS011;58101;48.658;2.328;2022-12-18T03:33:35;35.42;;;13.02;;
70549;SDS011;58101;48.658;2.328;2022-12-18T03:36:06;39.28;;;14.35;;
70549;SDS011;58101;48.658;2.328;2022-12-18T03:38:32;37.88;;;13.85;;
70549;SDS011;58101;48.658;2.328;2022-12-18T03:43:55;38.35;;;12.60;;
70549;SDS011;58101;48.658;2.328;2022-12-18T03:46:27;38.10;;;13.25;;
70549;SDS011;58101;48.658;2.328;2022-12-18T03:49:13;33.50;;;11.80;;
70549;SDS011;58101;48.658;2.328;2022-12-18T03:54:28;29.17;;;11.88;;
70549;SDS011;58101;48.658;2.328;2022-12-18T03:57:01;33.20;;;12.27;;
70549;SDS011;58101;48.658;2.328;2022-12-18T03:59:50;38.50;;;12.02;;
70549;SDS011;58101;48.658;2.328;2022-12-18T04:02:20;37.72;;;12.43;;
70549;SDS011;58101;48.658;2.328;2022-12-18T04:04:47;37.38;;;12.35;;
70549;SDS011;58101;48.658;2.328;2022-12-18T04:07:20;34.75;;;12.95;;
70549;SDS011;58101;48.658;2.328;2022-12-18T04:09:46;37.00;;;12.00;;
70549;SDS011;58101;48.658;2.328;2022-12-18T04:12:14;35.78;;;12.98;;
70549;SDS011;58101;48.658;2.328;2022-12-18T04:14:40;35.72;;;11.73;;
70549;SDS011;58101;48.658;2.328;2022-12-18T04:17:05;34.00;;;11.60;;
70549;SDS011;58101;48.658;2.328;2022-12-18T04:19:31;35.33;;;11.95;;
70549;SDS011;58101;48.658;2.328;2022-12-18T04:21:57;40.97;;;14.18;;
70549;SDS011;58101;48.658;2.328;2022-12-18T04:24:22;33.13;;;12.35;;
70549;SDS011;58101;48.658;2.328;2022-12-18T04:26:48;35.35;;;12.07;;
70549;SDS011;58101;48.658;2.328;2022-12-18T04:29:14;31.40;;;11.60;;
70549;SDS011;58101;48.658;2.328;2022-12-18T04:31:39;34.65;;;12.63;;
70549;SDS011;58101;48.658;2.328;2022-12-18T04:34:05;31.45;;;11.85;;
70549;SDS011;58101;48.658;2.328;2022-12-18T04:36:31;35.00;;;12.02;;
70549;SDS011;58101;48.658;2.328;2022-12-18T04:38:56;31.13;;;11.70;;
70549;SDS011;58101;48.658;2.328;2022-12-18T04:41:22;36.50;;;12.02;;
70549;SDS011;58101;48.658;2.328;2022-12-18T04:43:47;33.17;;;12.32;;
70549;SDS011;58101;48.658;2.328;2022-12-18T04:46:13;34.40;;;13.60;;
70549;SDS011;58101;48.658;2.328;2022-12-18T04:48:39;38.13;;;13.30;;
70549;SDS011;58101;48.658;2.328;2022-12-18T04:51:05;39.33;;;13.55;;
70549;SDS011;58101;48.658;2.328;2022-12-18T04:53:31;41.58;;;13.82;;
70549;SDS011;58101;48.658;2.328;2022-12-18T04:56:05;36.83;;;13.43;;
70549;SDS011;58101;48.658;2.328;2022-12-18T04:58:32;34.92;;;12.00;;
70549;SDS011;58101;48.658;2.328;2022-12-18T05:00:58;38.28;;;12.27;;
70549;SDS011;58101;48.658;2.328;2022-12-18T05:03:25;34.38;;;11.70;;
70549;SDS011;58101;48.658;2.328;2022-12-18T05:05:51;32.85;;;10.70;;
70549;SDS011;58101;48.658;2.328;2022-12-18T05:08:17;33.55;;;11.90;;
70549;SDS011;58101;48.658;2.328;2022-12-18T05:10:43;32.72;;;11.52;;
70549;SDS011;58101;48.658;2.328;2022-12-18T05:13:08;37.65;;;12.32;;
70549;SDS011;58101;48.658;2.328;2022-12-18T05:15:34;34.78;;;12.40;;
70549;SDS011;58101;48.658;2.328;2022-12-18T05:18:00;32.67;;;11.40;;
70549;SDS011;58101;48.658;2.328;2022-12-18T05:20:26;35.58;;;11.52;;
70549;SDS011;58101;48.658;2.328;2022-12-18T05:22:53;33.35;;;12.23;;
70549;SDS011;58101;48.658;2.328;2022-12-18T05:25:19;32.55;;;12.35;;
70549;SDS011;58101;48.658;2.328;2022-12-18T05:27:45;32.60;;;10.77;;
70549;SDS011;58101;48.658;2.328;2022-12-18T05:30:15;35.05;;;11.50;;
70549;SDS011;58101;48.658;2.328;2022-12-18T05:32:41;33.85;;;11.52;;
70549;SDS011;58101;48.658;2.328;2022-12-18T05:35:08;34.20;;;12.25;;
70549;SDS011;58101;48.658;2.328;2022-12-18T05:37:34;33.58;;;12.02;;
70549;SDS011;58101;48.658;2.328;2022-12-18T05:40:01;28.25;;;10.40;;
70549;SDS011;58101;48.658;2.328;2022-12-18T05:42:28;33.92;;;12.05;;
70549;SDS011;58101;48.658;2.328;2022-12-18T05:44:53;55.85;;;16.98;;
70549;SDS011;58101;48.658;2.328;2022-12-18T05:47:19;58.17;;;17.05;;
70549;SDS011;58101;48.658;2.328;2022-12-18T05:49:44;39.13;;;12.65;;
70549;SDS011;58101;48.658;2.328;2022-12-18T05:52:10;90.88;;;23.83;;
70549;SDS011;58101;48.658;2.328;2022-12-18T05:54:36;46.58;;;15.35;;
70549;SDS011;58101;48.658;2.328;2022-12-18T05:57:02;57.28;;;17.55;;
70549;SDS011;58101;48.658;2.328;2022-12-18T05:59:27;47.35;;;14.30;;
70549;SDS011;58101;48.658;2.328;2022-12-18T06:01:53;38.58;;;12.27;;
70549;SDS011;58101;48.658;2.328;2022-12-18T06:04:19;56.53;;;17.10;;
70549;SDS011;58101;48.658;2.328;2022-12-18T06:06:44;36.67;;;12.98;;
70549;SDS011;58101;48.658;2.328;2022-12-18T06:09:10;33.05;;;12.23;;
70549;SDS011;58101;48.658;2.328;2022-12-18T06:11:37;36.08;;;12.60;;
70549;SDS011;58101;48.658;2.328;2022-12-18T06:14:03;35.72;;;12.35;;
70549;SDS011;58101;48.658;2.328;2022-12-18T06:16:30;37.00;;;13.13;;
70549;SDS011;58101;48.658;2.328;2022-12-18T06:18:59;40.42;;;13.20;;
70549;SDS011;58101;48.658;2.328;2022-12-18T06:21:28;37.58;;;13.13;;
70549;SDS011;58101;48.658;2.328;2022-12-18T06:23:54;36.47;;;13.35;;
70549;SDS011;58101;48.658;2.328;2022-12-18T06:26:20;36.95;;;12.50;;
70549;SDS011;58101;48.658;2.328;2022-12-18T06:28:46;41.00;;;14.55;;
70549;SDS011;58101;48.658;2.328;2022-12-18T06:31:12;38.42;;;14.50;;
70549;SDS011;58101;48.658;2.328;2022-12-18T06:33:37;43.03;;;15.48;;
70549;SDS011;58101;48.658;2.328;2022-12-18T06:36:04;34.33;;;13.00;;
70549;SDS011;58101;48.658;2.328;2022-12-18T06:38:32;32.05;;;12.27;;
70549;SDS011;58101;48.658;2.328;2022-12-18T06:41:00;32.53;;;13.05;;
70549;SDS011;58101;48.658;2.328;2022-12-18T06:43:30;30.77;;;11.93;;
70549;SDS011;58101;48.658;2.328;2022-12-18T06:45:59;34.47;;;12.15;;
70549;SDS011;58101;48.658;2.328;2022-12-18T06:48:25;32.28;;;11.55;;
70549;SDS011;58101;48.658;2.328;2022-12-18T06:50:51;31.38;;;10.60;;
70549;SDS011;58101;48.658;2.328;2022-12-18T06:53:18;32.92;;;11.55;;
70549;SDS011;58101;48.658;2.328;2022-12-18T06:55:43;32.13;;;12.18;;
70549;SDS011;58101;48.658;2.328;2022-12-18T06:58:09;36.97;;;12.15;;
70549;SDS011;58101;48.658;2.328;2022-12-18T07:00:35;37.45;;;12.35;;
70549;SDS011;58101;48.658;2.328;2022-12-18T07:03:01;34.13;;;12.18;;
70549;SDS011;58101;48.658;2.328;2022-12-18T07:05:26;31.95;;;11.90;;
70549;SDS011;58101;48.658;2.328;2022-12-18T07:07:52;34.78;;;11.52;;
70549;SDS011;58101;48.658;2.328;2022-12-18T07:10:18;33.17;;;10.88;;
70549;SDS011;58101;48.658;2.328;2022-12-18T07:12:43;33.55;;;11.05;;
70549;SDS011;58101;48.658;2.328;2022-12-18T07:15:09;32.30;;;11.45;;
70549;SDS011;58101;48.658;2.328;2022-12-18T07:17:35;32.80;;;11.07;;
70549;SDS011;58101;48.658;2.328;2022-12-18T07:20:01;33.05;;;11.43;;
70549;SDS011;58101;48.658;2.328;2022-12-18T07:22:26;31.40;;;11.65;;
70549;SDS011;58101;48.658;2.328;2022-12-18T07:24:52;34.53;;;11.40;;
70549;SDS011;58101;48.658;2.328;2022-12-18T07:27:18;34.35;;;11.57;;
70549;SDS011;58101;48.658;2.328;2022-12-18T07:29:43;31.88;;;11.43;;
70549;SDS011;58101;48.658;2.328;2022-12-18T07:32:09;33.50;;;11.48;;
70549;SDS011;58101;48.658;2.328;2022-12-18T07:34:35;35.60;;;13.05;;
70549;SDS011;58101;48.658;2.328;2022-12-18T07:37:00;36.70;;;12.13;;
70549;SDS011;58101;48.658;2.328;2022-12-18T07:39:26;34.65;;;12.20;;
70549;SDS011;58101;48.658;2.328;2022-12-18T07:41:52;32.38;;;12.05;;
70549;SDS011;58101;48.658;2.328;2022-12-18T07:44:36;34.22;;;12.38;;
70549;SDS011;58101;48.658;2.328;2022-12-18T07:47:02;30.58;;;11.30;;
70549;SDS011;58101;48.658;2.328;2022-12-18T07:49:28;35.10;;;12.05;;
70549;SDS011;58101;48.658;2.328;2022-12-18T07:51:56;32.30;;;11.68;;
70549;SDS011;58101;48.658;2.328;2022-12-18T07:54:23;36.83;;;13.48;;
70549;SDS011;58101;48.658;2.328;2022-12-18T07:56:49;36.22;;;12.40;;
70549;SDS011;58101;48.658;2.328;2022-12-18T07:59:16;31.38;;;11.70;;
70549;SDS011;58101;48.658;2.328;2022-12-18T08:01:42;41.13;;;14.25;;
70549;SDS011;58101;48.658;2.328;2022-12-18T08:04:08;37.28;;;15.55;;
70549;SDS011;58101;48.658;2.328;2022-12-18T08:06:33;36.65;;;12.45;;
70549;SDS011;58101;48.658;2.328;2022-12-18T08:08:59;33.22;;;13.25;;
70549;SDS011;58101;48.658;2.328;2022-12-18T08:11:26;33.95;;;11.65;;
70549;SDS011;58101;48.658;2.328;2022-12-18T08:16:19;28.75;;;11.13;;
70549;SDS011;58101;48.658;2.328;2022-12-18T08:18:45;35.28;;;11.52;;
70549;SDS011;58101;48.658;2.328;2022-12-18T08:21:12;33.22;;;11.80;;
70549;SDS011;58101;48.658;2.328;2022-12-18T08:23:47;37.88;;;12.52;;
70549;SDS011;58101;48.658;2.328;2022-12-18T08:26:14;33.08;;;10.98;;
70549;SDS011;58101;48.658;2.328;2022-12-18T08:28:40;31.73;;;11.80;;
70549;SDS011;58101;48.658;2.328;2022-12-18T08:31:07;37.88;;;12.60;;
70549;SDS011;58101;48.658;2.328;2022-12-18T08:33:33;34.10;;;12.20;;
70549;SDS011;58101;48.658;2.328;2022-12-18T08:36:00;35.30;;;12.13;;
70549;SDS011;58101;48.658;2.328;2022-12-18T08:38:26;34.70;;;13.02;;
70549;SDS011;58101;48.658;2.328;2022-12-18T08:40:59;35.85;;;13.50;;
70549;SDS011;58101;48.658;2.328;2022-12-18T08:43:29;30.25;;;11.13;;
70549;SDS011;58101;48.658;2.328;2022-12-18T08:46:13;32.85;;;12.45;;
70549;SDS011;58101;48.658;2.328;2022-12-18T08:48:39;35.90;;;13.18;;
70549;SDS011;58101;48.658;2.328;2022-12-18T08:51:05;31.38;;;11.52;;
70549;SDS011;58101;48.658;2.328;2022-12-18T08:53:31;32.47;;;11.95;;
70549;SDS011;58101;48.658;2.328;2022-12-18T08:55:56;34.08;;;12.90;;
70549;SDS011;58101;48.658;2.328;2022-12-18T08:58:22;33.72;;;13.18;;
70549;SDS011;58101;48.658;2.328;2022-12-18T09:00:48;34.58;;;13.07;;
70549;SDS011;58101;48.658;2.328;2022-12-18T09:03:15;31.20;;;11.43;;
70549;SDS011;58101;48.658;2.328;2022-12-18T09:08:07;30.88;;;11.02;;
70549;SDS011;58101;48.658;2.328;2022-12-18T09:10:33;29.20;;;11.27;;
70549;SDS011;58101;48.658;2.328;2022-12-18T09:13:05;36.28;;;13.20;;
70549;SDS011;58101;48.658;2.328;2022-12-18T09:15:31;32.10;;;11.02;;
70549;SDS011;58101;48.658;2.328;2022-12-18T09:17:57;28.20;;;11.25;;
70549;SDS011;58101;48.658;2.328;2022-12-18T09:20:22;31.75;;;11.68;;
70549;SDS011;58101;48.658;2.328;2022-12-18T09:22:49;34.58;;;11.85;;
70549;SDS011;58101;48.658;2.328;2022-12-18T09:25:15;35.95;;;11.25;;
70549;SDS011;58101;48.658;2.328;2022-12-18T09:27:40;35.35;;;11.75;;
70549;SDS011;58101;48.658;2.328;2022-12-18T09:30:06;32.83;;;11.90;;
70549;SDS011;58101;48.658;2.328;2022-12-18T09:32:32;33.58;;;12.43;;
70549;SDS011;58101;48.658;2.328;2022-12-18T09:34:58;31.05;;;12.38;;
70549;SDS011;58101;48.658;2.328;2022-12-18T09:37:24;36.55;;;12.77;;
70549;SDS011;58101;48.658;2.328;2022-12-18T09:39:50;39.70;;;13.38;;
70549;SDS011;58101;48.658;2.328;2022-12-18T09:42:18;32.88;;;11.95;;
70549;SDS011;58101;48.658;2.328;2022-12-18T09:44:55;35.78;;;12.30;;
70549;SDS011;58101;48.658;2.328;2022-12-18T09:47:28;33.22;;;11.45;;
70549;SDS011;58101;48.658;2.328;2022-12-18T09:50:01;29.58;;;10.73;;
70549;SDS011;58101;48.658;2.328;2022-12-18T09:52:41;37.38;;;12.65;;
70549;SDS011;58101;48.658;2.328;2022-12-18T09:55:13;33.58;;;12.40;;
70549;SDS011;58101;48.658;2.328;2022-12-18T09:57:55;30.10;;;11.77;;
70549;SDS011;58101;48.658;2.328;2022-12-18T10:00:26;29.40;;;11.75;;
70549;SDS011;58101;48.658;2.328;2022-12-18T10:02:53;35.28;;;12.27;;
70549;SDS011;58101;48.658;2.328;2022-12-18T10:05:37;34.85;;;11.57;;
70549;SDS011;58101;48.658;2.328;2022-12-18T10:16:36;31.65;;;11.70;;
70549;SDS011;58101;48.658;2.328;2022-12-18T10:19:39;29.80;;;10.80;;
70549;SDS011;58101;48.658;2.328;2022-12-18T10:22:23;30.40;;;11.45;;
70549;SDS011;58101;48.658;2.328;2022-12-18T10:24:55;35.25;;;11.90;;
70549;SDS011;58101;48.658;2.328;2022-12-18T10:27:41;34.08;;;12.90;;
70549;SDS011;58101;48.658;2.328;2022-12-18T10:30:12;35.65;;;12.85;;
70549;SDS011;58101;48.658;2.328;2022-12-18T10:32:39;34.10;;;12.95;;
70549;SDS011;58101;48.658;2.328;2022-12-18T10:35:08;34.55;;;11.98;;
70549;SDS011;58101;48.658;2.328;2022-12-18T10:38:05;30.15;;;10.93;;
70549;SDS011;58101;48.658;2.328;2022-12-18T10:40:32;32.70;;;12.18;;
70549;SDS011;58101;48.658;2.328;2022-12-18T10:43:13;34.58;;;12.52;;
70549;SDS011;58101;48.658;2.328;2022-12-18T10:45:41;31.33;;;11.65;;
70549;SDS011;58101;48.658;2.328;2022-12-18T10:48:21;31.90;;;11.13;;
70549;SDS011;58101;48.658;2.328;2022-12-18T10:50:49;34.28;;;12.95;;
70549;SDS011;58101;48.658;2.328;2022-12-18T10:53:19;38.42;;;14.82;;
70549;SDS011;58101;48.658;2.328;2022-12-18T10:55:52;30.95;;;12.88;;
70549;SDS011;58101;48.658;2.328;2022-12-18T11:03:30;34.28;;;12.45;;
70549;SDS011;58101;48.658;2.328;2022-12-18T11:08:36;31.13;;;11.95;;
70549;SDS011;58101;48.658;2.328;2022-12-18T11:11:03;31.88;;;12.20;;
70549;SDS011;58101;48.658;2.328;2022-12-18T11:13:32;37.50;;;12.98;;
70549;SDS011;58101;48.658;2.328;2022-12-18T11:15:58;32.55;;;11.93;;
70549;SDS011;58101;48.658;2.328;2022-12-18T11:21:07;30.08;;;12.00;;
70549;SDS011;58101;48.658;2.328;2022-12-18T11:23:35;33.75;;;11.95;;
70549;SDS011;58101;48.658;2.328;2022-12-18T11:26:03;29.00;;;11.45;;
70549;SDS011;58101;48.658;2.328;2022-12-18T11:31:27;33.67;;;12.88;;
70549;SDS011;58101;48.658;2.328;2022-12-18T11:36:23;35.42;;;12.75;;
70549;SDS011;58101;48.658;2.328;2022-12-18T11:38:50;28.88;;;11.10;;
70549;SDS011;58101;48.658;2.328;2022-12-18T11:41:37;33.40;;;11.75;;
70549;SDS011;58101;48.658;2.328;2022-12-18T11:44:38;30.90;;;11.77;;
70549;SDS011;58101;48.658;2.328;2022-12-18T11:50:02;33.78;;;11.52;;
70549;SDS011;58101;48.658;2.328;2022-12-18T11:52:38;34.53;;;12.55;;
70549;SDS011;58101;48.658;2.328;2022-12-18T12:00:43;35.53;;;13.38;;
70549;SDS011;58101;48.658;2.328;2022-12-18T12:30:28;34.83;;;12.15;;
70549;SDS011;58101;48.658;2.328;2022-12-18T12:33:15;32.65;;;13.43;;
70549;SDS011;58101;48.658;2.328;2022-12-18T12:38:12;34.90;;;13.80;;
70549;SDS011;58101;48.658;2.328;2022-12-18T12:40:46;32.33;;;12.63;;
70549;SDS011;58101;48.658;2.328;2022-12-18T12:43:52;37.25;;;13.85;;
70549;SDS011;58101;48.658;2.328;2022-12-18T12:46:22;36.47;;;14.40;;
70549;SDS011;58101;48.658;2.328;2022-12-18T12:51:39;33.35;;;12.93;;
70549;SDS011;58101;48.658;2.328;2022-12-18T12:54:13;33.40;;;12.50;;
70549;SDS011;58101;48.658;2.328;2022-12-18T12:59:32;30.73;;;12.57;;
70549;SDS011;58101;48.658;2.328;2022-12-18T13:02:44;34.20;;;13.07;;
70549;SDS011;58101;48.658;2.328;2022-12-18T13:08:10;32.33;;;12.60;;
70549;SDS011;58101;48.658;2.328;2022-12-18T13:10:46;37.28;;;14.75;;
70549;SDS011;58101;48.658;2.328;2022-12-18T13:13:13;34.25;;;13.20;;
70549;SDS011;58101;48.658;2.328;2022-12-18T13:18:21;45.67;;;16.88;;
70549;SDS011;58101;48.658;2.328;2022-12-18T13:36:15;30.02;;;12.57;;
70549;SDS011;58101;48.658;2.328;2022-12-18T13:38:47;34.58;;;14.07;;
70549;SDS011;58101;48.658;2.328;2022-12-18T13:41:32;34.28;;;14.55;;
70549;SDS011;58101;48.658;2.328;2022-12-18T13:44:11;35.88;;;14.30;;
70549;SDS011;58101;48.658;2.328;2022-12-18T13:46:50;34.35;;;13.68;;
70549;SDS011;58101;48.658;2.328;2022-12-18T13:51:52;36.35;;;14.32;;
70549;SDS011;58101;48.658;2.328;2022-12-18T13:57:02;36.80;;;13.98;;
70549;SDS011;58101;48.658;2.328;2022-12-18T14:02:00;33.70;;;12.65;;
70549;SDS011;58101;48.658;2.328;2022-12-18T14:04:33;36.28;;;14.40;;
70549;SDS011;58101;48.658;2.328;2022-12-18T14:07:07;32.70;;;12.68;;
70549;SDS011;58101;48.658;2.328;2022-12-18T14:09:42;28.40;;;11.95;;
70549;SDS011;58101;48.658;2.328;2022-12-18T14:12:18;32.00;;;12.77;;
70549;SDS011;58101;48.658;2.328;2022-12-18T14:18:00;35.78;;;12.98;;
70549;SDS011;58101;48.658;2.328;2022-12-18T14:20:27;33.55;;;13.15;;
70549;SDS011;58101;48.658;2.328;2022-12-18T14:22:55;39.75;;;15.00;;
70549;SDS011;58101;48.658;2.328;2022-12-18T14:30:31;43.67;;;16.48;;
70549;SDS011;58101;48.658;2.328;2022-12-18T14:33:03;42.28;;;17.33;;
70549;SDS011;58101;48.658;2.328;2022-12-18T14:35:30;39.20;;;16.77;;
70549;SDS011;58101;48.658;2.328;2022-12-18T14:40:41;36.22;;;14.82;;
70549;SDS011;58101;48.658;2.328;2022-12-18T14:43:10;35.10;;;14.23;;
70549;SDS011;58101;48.658;2.328;2022-12-18T14:45:37;33.10;;;13.25;;
70549;SDS011;58101;48.658;2.328;2022-12-18T14:48:07;32.65;;;14.73;;
70549;SDS011;58101;48.658;2.328;2022-12-18T14:50:34;36.65;;;15.23;;
70549;SDS011;58101;48.658;2.328;2022-12-18T14:53:00;44.92;;;13.98;;
70549;SDS011;58101;48.658;2.328;2022-12-18T14:55:26;38.75;;;14.38;;
70549;SDS011;58101;48.658;2.328;2022-12-18T14:57:52;44.30;;;17.08;;
70549;SDS011;58101;48.658;2.328;2022-12-18T15:00:21;37.47;;;15.00;;
70549;SDS011;58101;48.658;2.328;2022-12-18T15:02:58;43.88;;;18.38;;
70549;SDS011;58101;48.658;2.328;2022-12-18T15:05:25;37.22;;;15.88;;
70549;SDS011;58101;48.658;2.328;2022-12-18T15:07:55;44.28;;;16.65;;
70549;SDS011;58101;48.658;2.328;2022-12-18T15:10:24;38.33;;;15.27;;
70549;SDS011;58101;48.658;2.328;2022-12-18T15:23:24;35.50;;;15.10;;
70549;SDS011;58101;48.658;2.328;2022-12-18T15:25:57;36.08;;;15.18;;
70549;SDS011;58101;48.658;2.328;2022-12-18T15:28:25;39.38;;;14.95;;
70549;SDS011;58101;48.658;2.328;2022-12-18T15:31:06;39.60;;;15.30;;
70549;SDS011;58101;48.658;2.328;2022-12-18T15:36:17;35.15;;;14.68;;
70549;SDS011;58101;48.658;2.328;2022-12-18T15:38:49;41.90;;;16.48;;
70549;SDS011;58101;48.658;2.328;2022-12-18T15:41:16;39.60;;;14.65;;
70549;SDS011;58101;48.658;2.328;2022-12-18T15:43:44;37.78;;;15.05;;
70549;SDS011;58101;48.658;2.328;2022-12-18T15:46:12;47.65;;;18.20;;
70549;SDS011;58101;48.658;2.328;2022-12-18T15:48:41;41.55;;;16.35;;
70549;SDS011;58101;48.658;2.328;2022-12-18T15:51:14;37.38;;;14.48;;
70549;SDS011;58101;48.658;2.328;2022-12-18T15:53:46;38.42;;;16.35;;
70549;SDS011;58101;48.658;2.328;2022-12-18T15:56:14;38.30;;;15.20;;
70549;SDS011;58101;48.658;2.328;2022-12-18T15:58:59;36.58;;;14.40;;
70549;SDS011;58101;48.658;2.328;2022-12-18T16:01:27;33.65;;;14.85;;
70549;SDS011;58101;48.658;2.328;2022-12-18T16:03:54;35.65;;;14.40;;
70549;SDS011;58101;48.658;2.328;2022-12-18T16:06:20;38.00;;;16.05;;
70549;SDS011;58101;48.658;2.328;2022-12-18T16:08:47;44.30;;;18.70;;
70549;SDS011;58101;48.658;2.328;2022-12-18T16:14:04;43.55;;;18.65;;
70549;SDS011;58101;48.658;2.328;2022-12-18T16:16:36;40.10;;;16.38;;
70549;SDS011;58101;48.658;2.328;2022-12-18T16:19:02;41.88;;;16.73;;
70549;SDS011;58101;48.658;2.328;2022-12-18T16:21:27;47.70;;;18.50;;
70549;SDS011;58101;48.658;2.328;2022-12-18T16:23:53;49.67;;;19.92;;
70549;SDS011;58101;48.658;2.328;2022-12-18T16:26:19;44.55;;;18.55;;
70549;SDS011;58101;48.658;2.328;2022-12-18T16:28:44;50.63;;;18.90;;
70549;SDS011;58101;48.658;2.328;2022-12-18T16:31:10;41.25;;;17.10;;
70549;SDS011;58101;48.658;2.328;2022-12-18T16:33:35;34.03;;;13.98;;
70549;SDS011;58101;48.658;2.328;2022-12-18T16:36:01;32.60;;;14.38;;
70549;SDS011;58101;48.658;2.328;2022-12-18T16:38:27;37.85;;;16.73;;
70549;SDS011;58101;48.658;2.328;2022-12-18T16:40:52;55.15;;;23.67;;
70549;SDS011;58101;48.658;2.328;2022-12-18T16:43:37;44.15;;;18.88;;
70549;SDS011;58101;48.658;2.328;2022-12-18T16:46:02;45.22;;;19.95;;
70549;SDS011;58101;48.658;2.328;2022-12-18T16:48:28;54.38;;;21.92;;
70549;SDS011;58101;48.658;2.328;2022-12-18T16:51:03;48.50;;;18.90;;
70549;SDS011;58101;48.658;2.328;2022-12-18T16:53:30;51.35;;;20.45;;
70549;SDS011;58101;48.658;2.328;2022-12-18T16:55:57;49.67;;;20.15;;
70549;SDS011;58101;48.658;2.328;2022-12-18T16:58:23;58.17;;;22.88;;
70549;SDS011;58101;48.658;2.328;2022-12-18T17:00:48;54.92;;;21.98;;
70549;SDS011;58101;48.658;2.328;2022-12-18T17:03:14;53.33;;;22.38;;
70549;SDS011;58101;48.658;2.328;2022-12-18T17:05:40;85.47;;;31.52;;
70549;SDS011;58101;48.658;2.328;2022-12-18T17:08:05;61.75;;;25.23;;
70549;SDS011;58101;48.658;2.328;2022-12-18T17:10:31;53.70;;;24.13;;
70549;SDS011;58101;48.658;2.328;2022-12-18T17:12:59;55.97;;;23.25;;
70549;SDS011;58101;48.658;2.328;2022-12-18T17:15:25;55.03;;;22.60;;
70549;SDS011;58101;48.658;2.328;2022-12-18T17:17:51;48.38;;;20.52;;
70549;SDS011;58101;48.658;2.328;2022-12-18T17:20:16;54.60;;;21.45;;
70549;SDS011;58101;48.658;2.328;2022-12-18T17:22:42;56.92;;;23.40;;